Latest Weather Observations for Point Perpendicular

IDN60801

Issued at 7:02 am EDT Saturday 25 March 2017 (issued every 30 minutes, with the page automatically refreshed every 10 minutes)

About weather observations | Map of weather stations | Latest weather observations for NSW | Other Formats
Station Details ID: 068151 Name: POINT PERPENDICULAR AWS Lat: -35.09 Lon: 150.80 Height: 85.0 m
Data from the previous 72 hours. | See also: Recent months at Point Perpendicular
Date/Time
EDT
Temp
°C
App
Temp
°C
Dew
Point
°C
Rel
Hum
%
Delta-T
°C
Wind Press
QNH
hPa
Press
MSL
hPa
Rain since
9am
mm
Dir  Spd
km/h
Gust
km/h
Spd
kts
Gust
kts
25/07:00am 18.1 19.8 18.1 100 0.0 NW 6 6 3 3 1017.2 1016.9 -
25/06:30am 18.1 19.7 17.9 99 0.1 NNW 6 6 3 3 1016.9 1016.6 3.8
25/06:00am 18.1 20.2 18.1 100 0.0 NNW 4 6 2 3 1017.1 1016.8 3.8
25/05:30am 18.4 20.5 18.2 99 0.1 NW 4 6 2 3 1017.6 1017.3 3.8
25/05:00am 18.3 20.4 18.1 99 0.1 NW 4 4 2 2 1017.6 1017.3 3.8
25/04:30am 18.3 20.5 18.3 100 0.0 NW 4 6 2 3 1017.5 1017.2 3.8
25/04:00am 18.4 20.6 18.4 100 0.0 NW 4 7 2 4 1017.4 1017.1 3.8
25/03:30am 18.5 21.1 18.3 99 0.1 W 2 4 1 2 1017.7 1017.4 3.8
25/03:00am 18.5 21.0 18.2 98 0.2 NW 2 4 1 2 1018.0 1017.7 3.8
25/02:30am 18.4 20.9 18.2 99 0.1 WNW 2 4 1 2 1017.8 1017.5 3.8
25/02:00am 18.5 20.9 18.0 97 0.3 NW 2 6 1 3 1018.5 1018.2 3.8
25/01:30am 18.6 20.7 18.1 97 0.3 NW 4 7 2 4 1018.7 1018.4 3.8
25/01:00am 19.0 20.3 17.5 91 0.9 NNW 7 9 4 5 1019.0 1018.7 3.8
25/12:30am 19.7 20.9 16.0 79 2.2 NW 4 7 2 4 1019.6 1019.3 3.8
25/12:00am 20.0 19.7 14.4 70 3.3 ENE 9 15 5 8 1019.6 1019.3 3.8
 
Date/Time
EDT
Temp
°C
App
Temp
°C
Dew
Point
°C
Rel
Hum
%
Delta-T
°C
Wind Press
QNH
hPa
Press
MSL
hPa
Rain since
9am
mm
Dir  Spd
km/h
Gust
km/h
Spd
kts
Gust
kts
24/11:30pm 20.1 20.3 14.2 69 3.4 E 6 11 3 6 1020.1 1019.8 3.8
24/11:00pm 20.1 20.4 14.5 70 3.3 E 6 9 3 5 1020.2 1019.9 3.8
24/10:30pm 20.1 20.2 14.5 70 3.3 E 7 13 4 7 1020.4 1020.2 3.8
24/10:00pm 20.2 19.6 14.6 70 3.3 ESE 11 17 6 9 1020.5 1020.3 3.8
24/09:30pm 20.3 19.9 14.2 68 3.5 ESE 9 13 5 7 1020.3 1020.1 3.8
24/09:00pm 20.4 20.5 14.5 69 3.4 ESE 7 11 4 6 1020.3 1020.1 3.8
24/08:30pm 20.3 20.0 14.4 69 3.4 ESE 9 15 5 8 1020.0 1019.7 3.8
24/08:00pm 20.4 19.8 14.5 69 3.4 ESE 11 17 6 9 1019.7 1019.4 3.8
24/07:30pm 20.3 19.6 14.2 68 3.5 ESE 11 17 6 9 1019.5 1019.2 3.8
24/07:00pm 20.3 19.8 14.9 71 3.2 ESE 11 17 6 9 1019.5 1019.2 3.8
24/06:30pm 20.4 19.9 15.0 71 3.2 ESE 11 19 6 10 1019.6 1019.3 3.8
24/06:00pm 20.5 19.6 14.8 70 3.3 ESE 13 22 7 12 1019.4 1019.1 3.8
24/05:30pm 20.5 19.8 15.3 72 3.1 SE 13 19 7 10 1019.3 1019.0 3.8
24/05:00pm 20.6 20.2 15.2 71 3.2 SE 11 19 6 10 1019.4 1019.1 3.8
24/04:30pm 20.6 19.3 14.9 70 3.4 SE 15 22 8 12 1019.2 1018.9 3.8
24/04:00pm 20.6 19.3 14.7 69 3.5 SE 15 22 8 12 1019.4 1019.1 3.8
24/03:30pm 20.8 19.9 15.8 73 3.0 SE 15 22 8 12 1019.5 1019.2 3.8
24/03:00pm 20.9 20.4 15.9 73 3.0 SE 13 20 7 11 1019.8 1019.5 3.8
24/02:30pm 21.2 21.4 16.8 76 2.7 SSE 11 17 6 9 1020.2 1019.9 3.8
24/02:00pm 21.1 21.5 17.3 79 2.3 SE 11 19 6 10 1020.3 1020.1 3.8
24/01:30pm 21.0 21.5 18.4 85 1.6 SE 13 20 7 11 1020.7 1020.5 3.8
24/01:00pm 20.1 20.3 17.7 86 1.5 SSE 13 22 7 12 1020.8 1020.6 3.8
24/12:30pm 19.8 20.6 19.0 95 0.5 SW 13 22 7 12 1020.8 1020.6 3.8
24/12:00pm 18.7 20.1 18.7 100 0.0 WSW 9 19 5 10 1021.0 1020.8 2.8
24/11:30am 19.8 20.9 18.1 90 1.1 SSE 9 17 5 9 1021.4 1021.2 1.4
24/11:00am 18.5 17.9 18.5 100 0.0 SW 19 37 10 20 1021.4 1021.2 1.2
24/10:30am 19.5 19.5 18.2 92 0.8 SW 15 22 8 12 1021.2 1021.0 0.0
24/10:00am 19.3 19.0 18.3 94 0.6 SW 17 26 9 14 1020.9 1020.7 0.0
24/09:30am 19.2 18.4 17.9 92 0.8 SW 19 26 10 14 1020.5 1020.3 0.0
24/09:00am 18.9 18.9 18.9 100 0.0 SW 17 26 9 14 1020.5 1020.3 40.2
24/08:30am 18.6 18.8 18.6 100 0.0 SW 15 24 8 13 1020.2 1019.9 40.2
24/08:00am 18.7 18.6 18.7 100 0.0 SW 17 24 9 13 1020.0 1019.7 40.2
24/07:30am 18.4 19.7 18.4 100 0.0 WSW 9 19 5 10 1020.1 1019.8 40.2
24/07:00am 18.5 19.8 18.5 100 0.0 SW 9 19 5 10 1020.1 1019.8 40.2
24/06:30am 18.7 19.2 18.4 98 0.2 SSW 13 19 7 10 1019.6 1019.3 38.2
24/06:00am 20.2 18.8 16.6 80 2.2 SSW 19 28 10 15 1019.3 1019.0 38.2
24/05:30am 20.7 18.9 15.9 74 2.9 S 20 32 11 17 1019.0 1018.7 38.2
24/05:00am 20.5 19.4 16.3 77 2.5 S 17 24 9 13 1019.0 1018.7 38.2
24/04:30am 20.3 18.7 15.9 76 2.6 SSE 19 26 10 14 1018.8 1018.5 38.2
24/04:00am 20.4 19.3 16.4 78 2.4 S 17 32 9 17 1018.8 1018.5 38.2
24/03:30am 20.2 19.0 16.0 77 2.5 SSE 17 26 9 14 1018.7 1018.4 38.2
24/03:00am 20.2 19.4 17.0 82 1.9 SSE 17 26 9 14 1019.0 1018.7 38.2
24/02:30am 19.8 18.6 17.0 84 1.7 SSE 19 28 10 15 1019.0 1018.7 38.2
24/02:00am 18.7 20.7 18.7 100 0.0 S 6 11 3 6 1019.5 1019.2 38.0
24/01:30am 18.4 20.2 18.4 100 0.0 SSE 6 9 3 5 1019.6 1019.3 38.0
24/01:00am 18.1 18.5 18.1 100 0.0 S 13 20 7 11 1019.8 1019.5 36.8
24/12:30am 19.9 20.4 18.4 91 0.9 SSE 13 20 7 11 1019.5 1019.2 35.4
24/12:00am 19.4 19.2 18.6 95 0.5 SSE 17 26 9 14 1019.3 1019.0 35.4
 
Date/Time
EDT
Temp
°C
App
Temp
°C
Dew
Point
°C
Rel
Hum
%
Delta-T
°C
Wind Press
QNH
hPa
Press
MSL
hPa
Rain since
9am
mm
Dir  Spd
km/h
Gust
km/h
Spd
kts
Gust
kts
23/11:30pm 19.4 20.7 19.4 100 0.0 SSE 11 22 6 12 1019.5 1019.2 35.4
23/11:00pm 19.4 20.7 19.4 100 0.0 SSE 11 19 6 10 1019.6 1019.3 33.2
23/10:30pm 19.2 20.8 19.2 100 0.0 SSE 9 17 5 9 1019.3 1019.0 33.2
23/10:00pm 19.2 19.7 19.2 100 0.0 SSE 15 24 8 13 1019.6 1019.3 33.0
23/09:30pm 18.9 18.5 18.9 100 0.0 SSE 19 30 10 16 1019.3 1019.0 32.8
23/09:00pm 18.7 17.3 18.7 100 0.0 SSE 24 39 13 21 1019.0 1018.7 32.4
23/08:30pm 18.5 17.0 18.5 100 0.0 SSE 24 35 13 19 1018.7 1018.4 30.4
23/08:00pm 18.7 18.0 18.7 100 0.0 SW 20 33 11 18 1018.5 1018.2 27.6
23/07:30pm 18.7 17.3 18.7 100 0.0 SSW 24 33 13 18 1017.6 1017.3 24.0
23/07:00pm 19.0 18.1 19.0 100 0.0 SW 22 35 12 19 1017.5 1017.2 17.8
23/06:30pm 19.0 18.5 19.0 100 0.0 SW 20 30 11 16 1017.6 1017.3 17.4
23/06:00pm 19.2 18.4 19.2 100 0.0 SW 22 33 12 18 1017.7 1017.4 16.6
23/05:30pm 19.4 18.7 19.4 100 0.0 SSW 22 33 12 18 1017.7 1017.4 15.2
23/05:00pm 19.5 19.2 19.5 100 0.0 SSW 20 33 11 18 1017.3 1017.0 15.2
23/04:30pm 19.4 20.0 19.4 100 0.0 SW 15 30 8 16 1017.7 1017.4 15.2
23/04:00pm 18.9 18.3 18.9 100 0.0 SW 20 33 11 18 1017.6 1017.3 15.2
23/03:30pm 18.8 18.2 18.8 100 0.0 SW 20 32 11 17 1018.0 1017.7 15.2
23/03:00pm 18.7 19.0 18.7 100 0.0 S 15 26 8 14 1018.0 1017.7 14.0
23/02:30pm 18.6 17.9 18.6 100 0.0 S 20 32 11 17 1017.8 1017.5 12.4
23/02:00pm 18.8 18.7 18.8 100 0.0 SW 17 24 9 13 1018.5 1018.2 7.0
23/01:30pm 19.1 17.8 19.1 100 0.0 SSW 24 37 13 20 1018.1 1017.8 6.4
23/01:00pm 18.7 18.0 18.7 100 0.0 SSW 20 33 11 18 1019.1 1018.8 5.4
23/12:30pm 18.8 18.4 18.8 100 0.0 SW 19 30 10 16 1019.2 1018.9 3.4
23/12:00pm 18.7 18.6 18.7 100 0.0 SW 17 28 9 15 1019.3 1019.0 2.2
23/11:30am 19.4 19.0 19.4 100 0.0 SW 20 32 11 17 1019.2 1018.9 0.2
23/11:00am 19.1 18.1 18.8 98 0.2 SW 22 33 12 18 1019.4 1019.1 0.2
23/10:30am 19.1 17.4 18.9 99 0.1 SW 26 35 14 19 1019.5 1019.2 0.2
23/10:00am 19.1 18.8 19.1 100 0.0 SW 19 28 10 15 1019.4 1019.1 0.2
23/09:30am 18.8 17.8 18.8 100 0.0 SW 22 33 12 18 1019.2 1018.9 0.2
23/09:00am 19.1 18.1 18.8 98 0.2 SW 22 35 12 19 1018.9 1018.6 5.0
23/08:30am 19.0 18.4 18.8 99 0.1 SW 20 32 11 17 1018.7 1018.4 5.0
23/08:00am 18.9 18.3 18.9 100 0.0 SW 20 32 11 17 1018.4 1018.1 5.0
23/07:30am 19.0 17.7 19.0 100 0.0 SW 24 37 13 20 1018.2 1017.9 5.0
23/07:00am 19.0 17.7 19.0 100 0.0 SW 24 37 13 20 1017.7 1017.4 5.0
23/06:30am 19.4 18.9 19.2 99 0.1 SW 20 32 11 17 1017.7 1017.4 5.0
23/06:00am 19.1 18.6 19.1 100 0.0 SW 20 33 11 18 1017.6 1017.3 4.8
23/05:30am 19.0 18.4 18.8 99 0.1 SW 20 30 11 16 1017.7 1017.4 4.8
23/05:00am 18.8 18.2 18.8 100 0.0 SW 20 33 11 18 1017.1 1016.8 4.8
23/04:30am 18.9 17.9 18.9 100 0.0 SW 22 33 12 18 1016.9 1016.6 4.8
23/04:00am 18.7 18.2 18.7 100 0.0 SW 19 30 10 16 1017.1 1016.8 4.8
23/03:30am 19.1 18.4 18.6 97 0.3 SW 20 32 11 17 1017.0 1016.7 4.8
23/03:00am 19.2 18.6 18.9 98 0.2 SW 20 33 11 18 1017.1 1016.8 4.8
23/02:30am 19.3 18.9 19.3 100 0.0 SW 20 33 11 18 1016.9 1016.6 4.8
23/02:00am 19.2 18.9 19.2 100 0.0 SW 19 33 10 18 1017.3 1017.0 4.8
23/01:30am 19.4 18.3 19.4 100 0.0 SW 24 37 13 20 1017.1 1016.8 4.8
23/01:00am 19.5 17.7 19.5 100 0.0 SW 28 39 15 21 1017.1 1016.8 4.8
23/12:30am 19.9 18.2 19.9 100 0.0 SW 28 44 15 24 1017.2 1016.9 4.8
23/12:00am 20.0 18.0 20.0 100 0.0 SSW 30 44 16 24 1016.7 1016.4 4.8
 
Date/Time
EDT
Temp
°C
App
Temp
°C
Dew
Point
°C
Rel
Hum
%
Delta-T
°C
Wind Press
QNH
hPa
Press
MSL
hPa
Rain since
9am
mm
Dir  Spd
km/h
Gust
km/h
Spd
kts
Gust
kts
22/11:47pm 19.8 17.3 19.8 100 0.0 SSW 32 50 17 27 1016.9 1016.6 4.8
22/11:30pm 20.1 18.9 20.1 100 0.0 SSW 26 37 14 20 1017.0 1016.7 4.6
22/11:00pm 20.4 19.0 20.4 100 0.0 SSW 28 41 15 22 1016.8 1016.5 4.6
22/10:30pm 20.9 19.6 20.7 99 0.1 SSW 28 46 15 25 1016.4 1016.1 4.6
22/10:00pm 21.4 19.7 19.9 91 1.0 SSW 28 41 15 22 1015.9 1015.6 4.6
22/09:34pm 21.3 19.0 19.4 89 1.2 SSW 30 48 16 26 1015.2 1014.9 4.6
22/09:30pm 21.2 19.1 20.5 96 0.5 SSW 32 46 17 25 1015.5 1015.2 4.6
22/09:23pm 21.3 19.6 19.9 92 0.9 SSW 28 46 15 25 1015.3 1015.0 4.6
22/09:00pm 21.5 19.8 19.8 90 1.1 SSW 28 44 15 24 1015.0 1014.7 4.6
22/08:30pm 21.6 19.9 20.6 94 0.6 SSW 30 43 16 23 1014.9 1014.6 4.6
22/08:00pm 21.7 19.9 20.3 92 0.9 SSW 30 44 16 24 1014.5 1014.2 4.6
22/07:30pm 21.5 21.8 21.5 100 0.0 S 22 33 12 18 1014.2 1013.9 4.6
22/07:00pm 20.9 20.5 20.9 100 0.0 S 24 35 13 19 1013.9 1013.6 4.6
22/06:30pm 20.8 20.3 20.8 100 0.0 S 24 39 13 21 1013.2 1012.9 2.4
22/06:00pm 20.7 19.8 20.7 100 0.0 S 26 43 14 23 1012.5 1012.2 1.6
22/05:58pm 21.2 21.0 21.2 100 0.0 SSE 24 43 13 23 1012.8 1012.5 1.4
22/05:30pm 23.1 26.3 23.1 100 0.0 SSE 11 17 6 9 1012.9 1012.6 1.0
22/05:00pm 23.3 27.0 23.3 100 0.0 NNW 9 13 5 7 1012.4 1012.1 0.8
22/04:30pm 23.5 27.2 23.3 99 0.1 SE 9 13 5 7 1011.3 1011.0 0.0
22/04:00pm 24.1 27.4 23.2 95 0.6 ESE 11 15 6 8 1011.2 1010.9 0.0
22/03:30pm 24.6 27.6 23.4 93 0.8 ESE 13 19 7 10 1011.0 1010.8 0.0
22/03:00pm 24.3 27.3 23.4 95 0.6 ESE 13 15 7 8 1011.2 1010.9 0.0
22/02:30pm 24.8 27.7 23.2 91 1.1 SE 13 17 7 9 1011.6 1011.3 0.0
22/02:00pm 24.7 27.3 23.3 92 1.0 SSE 15 19 8 10 1012.1 1011.8 0.0
22/01:30pm 24.9 27.2 22.8 88 1.4 SSE 15 22 8 12 1012.3 1012.0 0.0
22/01:00pm 25.3 27.6 22.0 82 2.2 SSE 13 19 7 10 1012.5 1012.2 0.0
22/12:30pm 25.0 26.7 22.3 85 1.8 S 17 22 9 12 1012.5 1012.2 0.0
22/12:00pm 25.0 26.2 20.7 77 2.8 SSW 15 22 8 12 1012.6 1012.3 0.0
22/11:30am 25.6 28.7 21.1 76 3.0 SW 6 11 3 6 1012.7 1012.4 0.0
22/11:00am 25.8 29.6 21.0 75 3.2 W 2 7 1 4 1012.6 1012.3 0.0
22/10:30am 25.9 29.3 20.9 74 3.3 NW 4 9 2 5 1012.6 1012.3 0.0
22/10:00am 25.4 28.7 21.5 79 2.6 NNW 6 11 3 6 1012.3 1012.0 0.0
22/09:30am 24.0 27.0 21.3 85 1.8 NNE 7 11 4 6 1012.3 1012.0 0.0
22/09:00am 23.4 26.4 20.9 86 1.6 W 6 9 3 5 1012.0 1011.7 1.8
22/08:30am 23.8 26.0 20.5 82 2.2 WNW 9 17 5 9 1011.4 1011.1 1.8
22/08:00am 23.2 25.2 20.7 86 1.6 WNW 11 19 6 10 1010.9 1010.7 1.8
22/07:30am 22.5 23.4 20.8 90 1.1 NW 17 22 9 12 1010.4 1010.2 1.8

Other Formats:

Comma delimited format used in spreadsheet applications
http://www.bom.gov.au/fwo/IDN60801/IDN60801.95940.axf

JavaScript Object Notation format (JSON) in row-major order
http://www.bom.gov.au/fwo/IDN60801/IDN60801.95940.json